x

Ne Puerto Rico - 170 Nm Nne Of San Juan, P R (41043) Wave Buoy

2:50pm - Mon 2nd Mar 2015 All times are AST. -4 hours from GMT.

  • Sig Wave height 8.2ft
  • Swell Direction
  • Peak Period 10s
  • Average Period 7s
  • Wind
    20mph, 22mph gusts
  • Sea Temp 79°f
  • Air Temp 76°f
  • Sea Pressure 1019mb
  • Ne Puerto Rico  - 170 Nm Nne Of San Juan,  P R
  • Ne Puerto Rico  - 170 Nm Nne Of San Juan,  P R

More Historic Weather Station data

Upgrade to MSW Pro to gain access to the past 30 days of data for over 8000 Wavebouys and Weather Stations around the globe.

Join Pro

Comparision Forecast

View Surf forecast
   
Mon 03/02 2:50pm 8ft 10s 7s 20 22 mph 1019mb 79f 76f
1:50pm 8ft 10s 6s 18 20 mph 1019.6mb 79f 76f
12:50pm 7.5ft 10s 7s 22 25 mph 1020.1mb 79f 76f
11:50am 8ft 9s 7s 16 22 mph 1021.1mb 79f 78f
10:50am 8.5ft 10s 7s 18 22 mph 1021.8mb 79f 78f
9:50am 8ft 9s 7s 16 18 mph 1021.8mb 79f 78f
8:50am 8ft 10s 7s 18 20 mph 1021.5mb 79f 77f
7:50am 8ft 10s 7s 16 20 mph 1021mb 79f 78f
6:50am 8ft 10s 7s 18 20 mph 1020.5mb 79f 77f
5:50am 8ft 10s 6s 18 22 mph 1019.7mb 79f 77f
4:50am 8.5ft 9s 7s 20 25 mph 1019.5mb 79f 77f
3:50am 8.5ft 10s 7s 16 20 mph 1019.8mb 79f 77f
2:50am 9ft 10s 7s 16 18 mph 1020.2mb 79f 76f
1:50am 8ft 11s 6s 16 22 mph 1020.8mb 79f 77f
12:50am 8.5ft 10s 7s 18 22 mph 1021.8mb 79f 78f
Sun 03/01 11:50pm 9ft 9s 7s 20 25 mph 1022mb 79f 78f
10:50pm 9ft 9s 7s 22 27 mph 1022.5mb 79f 78f
9:50pm 9ft 10s 7s 20 25 mph 1022.6mb 79f 78f
8:50pm 9ft 9s 6s 22 27 mph 1022mb 79f 78f
7:50pm 8ft 10s 6s 20 25 mph 1021.4mb 79f 78f
6:50pm 9ft 9s 7s 20 22 mph 1021mb 79f 78f
5:50pm 7.5ft 9s 6s 20 25 mph 1021mb 79f 78f
4:50pm 8ft 10s 6s 20 25 mph 1020.5mb 79f 79f
3:50pm  -   -   -  20 25 mph 1020.5mb 79f 79f
2:50pm 8ft 9s 6s 18 25 mph 1021mb 79f 79f
1:50pm 8ft 10s 6s 20 22 mph 1021.7mb 79f 79f
12:50pm 8ft 10s 6s 20 22 mph 1022.4mb 79f 78f
11:50am 8ft 9s 6s 20 25 mph 1023.1mb 79f 79f
10:50am 8ft 10s 6s 18 22 mph 1023.9mb 79f 79f
9:50am 8ft 9s 6s 20 25 mph 1023.6mb 79f 79f
8:50am 7ft 9s 6s 22 27 mph 1023.1mb 79f 79f
7:50am 7.5ft 9s 6s 20 25 mph 1022.3mb 79f 78f
6:50am 8ft 9s 7s 20 25 mph 1021.9mb 79f 77f
5:50am 7.5ft 9s 6s 18 20 mph 1021.1mb 79f 78f
4:50am 8ft 9s 6s 20 25 mph 1020.7mb 79f 78f
3:50am 8ft 9s 6s 18 22 mph 1020.8mb 79f 78f
2:50am 8ft 9s 6s 18 22 mph 1021.1mb 79f 78f
1:50am 9ft 10s 7s 20 25 mph 1021.8mb 79f 78f
12:50am 7.5ft 10s 6s 22 27 mph 1022.2mb 79f 78f
Sat 02/28 11:50pm 9ft 8s 7s 20 22 mph 1022.7mb 79f 78f
10:50pm 8ft 8s 6s 20 22 mph 1022.9mb 79f 78f
9:50pm 8ft 9s 6s 20 25 mph 1022.4mb 79f 78f
8:50pm 8.5ft 8s 6s 20 27 mph 1022.5mb 79f 79f
7:50pm 7.5ft 9s 6s 20 22 mph 1022mb 79f 79f
6:50pm 8ft 9s 6s 22 27 mph 1021.3mb 79f 78f
5:50pm 8.5ft 8s 6s 22 25 mph 1021.1mb 80f 79f
4:50pm 8.5ft 9s 6s 22 27 mph 1020.8mb 80f 79f
3:50pm 9ft 9s 6s 22 27 mph 1020.6mb 80f 79f
2:50pm 8.5ft 8s 6s 22 27 mph 1020.9mb 80f 79f
1:50pm 8ft 8s 6s 22 27 mph 1021.2mb 80f 79f
12:50pm 9ft 8s 6s 25 29 mph 1021.7mb 80f 79f
11:50am 8.5ft 9s 6s 25 29 mph 1022.5mb 79f 79f
10:50am 9ft 9s 6s 22 27 mph 1023.1mb 79f 79f
9:50am 9ft 8s 6s 22 27 mph 1023mb 79f 79f
8:50am 8.5ft 8s 6s 22 27 mph 1022.6mb 79f 79f
7:50am 8ft 8s 6s 25 29 mph 1021.9mb 79f 79f
6:50am 8ft 8s 6s 25 31 mph 1021.1mb 79f 78f
5:50am 8ft 8s 6s 25 31 mph 1020.4mb 79f 78f
4:50am 7.5ft 8s 6s 22 27 mph 1020.3mb 79f 78f
3:50am 7ft 8s 6s 22 25 mph 1020.2mb 79f 78f
2:50am 8ft 8s 6s 22 29 mph 1020.4mb 79f 77f
1:50am 8ft 8s 6s 20 25 mph 1021mb 79f 77f
12:50am 8ft 8s 6s 22 27 mph 1021.4mb 79f 78f
Fri 02/27 11:50pm 7.5ft 8s 6s 22 27 mph 1021.6mb 80f 78f
10:50pm 8ft 8s 6s 20 25 mph 1021.8mb 80f 79f
9:50pm 8ft 9s 6s 20 25 mph 1021.6mb 80f 79f
8:50pm 7.5ft 9s 6s 22 27 mph 1021.2mb 80f 79f
7:50pm 8ft 8s 6s 22 29 mph 1020.4mb 80f 79f
6:50pm 7ft 9s 6s 16 18 mph 1020.4mb 80f 76f
5:50pm 7.5ft 8s 6s 27 31 mph 1019.9mb 80f 75f
4:50pm 8ft 8s 6s 27 31 mph 1019.5mb 80f 75f
3:50pm 7ft 7s 6s 20 25 mph 1019.1mb 80f 79f
2:50pm 7.5ft 8s 6s 20 25 mph 1019.3mb 80f 79f
1:50pm 8ft 8s 6s 20 25 mph 1020.1mb 80f 79f
12:50pm 7.5ft 8s 6s 20 25 mph 1020.6mb 80f 79f
11:50am 7ft 8s 6s 20 25 mph 1021.4mb 80f 79f
10:50am 8ft 8s 6s 20 25 mph 1021.9mb 79f 79f
9:50am 7.5ft 7s 6s 20 25 mph 1021.9mb 79f 79f
8:50am 7ft 7s 6s 16 18 mph 1021.8mb 79f 75f
7:50am 6.5ft 7s 6s 20 25 mph 1021.1mb 79f 77f
6:50am 7ft 8s 6s 16 22 mph 1020.8mb 79f 76f
5:50am 7ft 8s 6s 29 34 mph 1019.5mb 79f 75f
4:50am 7ft 9s 6s 18 20 mph 1019.6mb 79f 78f
3:50am 7ft 9s 6s 22 29 mph 1019.4mb 79f 76f
2:50am 6.5ft 9s 6s 20 25 mph 1020mb 79f 78f
1:50am 7ft 7s 6s 20 25 mph 1020.7mb 79f 79f
12:50am 6.5ft 7s 6s 20 25 mph 1021.1mb 79f 79f
Thu 02/26 11:50pm 6.5ft 8s 6s 20 25 mph 1021.2mb 79f 79f
10:50pm 7ft 10s 6s 20 22 mph 1021.3mb 79f 79f
9:50pm 7ft 7s 6s 20 25 mph 1021.2mb 79f 79f
8:50pm 7ft 10s 6s 20 25 mph 1020.9mb 80f 79f